Time;durP1;ratioP1;P1;durP2;ratioP2;P2;SDS_P1;SDS_P2;PMS_P1;PMS_P2;Temp;Humidity;BMP_temperature;BMP_pressure;BME280_temperature;BME280_humidity;BME280_pressure;Samples;Min_cycle;Max_cycle;Signal;HPM_P1;HPM_P2
2023/07/10 00:00:17;;;;;;;5.80;3.70;;;;;;;20.94;100.00;151301.66;5071997;28;20196;-61
2023/07/10 00:02:44;;;;;;;4.35;3.83;;;;;;;20.75;100.00;151253.28;5071762;28;20189;-60
2023/07/10 00:05:14;;;;;;;4.38;3.97;;;;;;;20.96;100.00;151308.00;5072095;28;20191;-60
2023/07/10 00:07:41;;;;;;;7.60;3.65;;;;;;;20.92;100.00;151296.53;5071993;28;20266;-60
2023/07/10 00:10:11;;;;;;;8.05;3.65;;;;;;;20.87;100.00;151285.13;5071920;28;20189;-60
2023/07/10 00:12:38;;;;;;;6.25;4.15;;;;;;;20.93;100.00;151299.09;5071630;28;20189;-59
2023/07/10 00:15:15;;;;;;;4.47;4.07;;;;;;;21.04;100.00;151327.16;5071634;28;20185;-60
2023/07/10 00:17:45;;;;;;;6.75;3.70;;;;;;;20.90;100.00;151291.47;5071553;28;20191;-60
2023/07/10 00:20:18;;;;;;;4.18;3.92;;;;;;;20.89;100.00;151288.91;5071585;28;20185;-59
2023/07/10 00:22:45;;;;;;;7.72;3.67;;;;;;;20.83;100.00;151273.66;5071575;28;20189;-60
2023/07/10 00:25:15;;;;;;;3.78;3.65;;;;;;;20.99;100.00;151314.41;5071845;28;20185;-60
2023/07/10 00:27:47;;;;;;;3.72;3.42;;;;;;;21.17;100.00;151360.34;5071393;28;20261;-60
2023/07/10 00:30:16;;;;;;;5.93;4.03;;;;;;;21.14;100.00;151351.38;5071112;28;20200;-60
2023/07/10 00:32:43;;;;;;;3.75;3.45;;;;;;;21.14;100.00;151352.66;5071404;28;20184;-60
2023/07/10 00:35:10;;;;;;;4.57;3.53;;;;;;;21.15;100.00;151353.94;5071713;28;20189;-60
2023/07/10 00:37:37;;;;;;;4.35;4.00;;;;;;;20.96;100.00;151306.78;5071386;28;20181;-60
2023/07/10 00:40:22;;;;;;;4.35;4.00;;;;;;;20.94;100.00;151301.66;5071598;28;20207;-60
2023/07/10 00:42:53;;;;;;;6.50;3.72;;;;;;;20.73;100.00;151248.16;5071340;28;20192;-60
2023/07/10 00:45:21;;;;;;;3.80;3.58;;;;;;;20.59;100.00;151212.47;5071483;28;20240;-60
2023/07/10 00:47:59;;;;;;;3.65;3.45;;;;;;;20.65;100.00;151229.06;5071645;28;20211;-60
2023/07/10 00:50:32;;;;;;;3.42;3.30;;;;;;;20.68;100.00;151235.41;5071261;28;20188;-60
2023/07/10 00:53:03;;;;;;;3.92;3.60;;;;;;;20.67;100.00;151234.13;5071252;28;20185;-60
2023/07/10 00:55:34;;;;;;;4.15;3.55;;;;;;;20.61;100.00;151218.88;5071609;28;20193;-60
2023/07/10 00:58:19;;;;;;;3.97;3.72;;;;;;;20.42;100.00;151171.72;5071238;28;20185;-61
2023/07/10 01:01:07;;;;;;;3.63;3.42;;;;;;;20.49;100.00;151189.59;5071063;28;20219;-60
2023/07/10 01:03:36;;;;;;;5.70;3.75;;;;;;;20.30;100.00;151141.19;5071091;28;20220;-60
2023/07/10 01:06:08;;;;;;;4.20;3.80;;;;;;;20.23;100.00;151123.31;5071341;28;20207;-61
2023/07/10 01:08:36;;;;;;;4.00;3.50;;;;;;;19.98;100.00;151060.94;5071333;28;20606;-61
2023/07/10 01:11:04;;;;;;;4.75;4.10;;;;;;;20.28;100.00;151134.78;5071014;28;20189;-60
2023/07/10 01:13:32;;;;;;;4.25;3.90;;;;;;;20.22;100.00;151119.50;5070985;28;20196;-61
2023/07/10 01:16:00;;;;;;;4.63;4.05;;;;;;;20.35;100.00;151152.66;5071264;28;20238;-61
2023/07/10 01:18:28;;;;;;;4.45;3.97;;;;;;;20.33;100.00;151148.81;5071288;28;20272;-61
2023/07/10 01:21:23;;;;;;;5.10;4.65;;;;;;;20.24;100.00;151125.81;5070864;28;20189;-61
2023/07/10 01:23:50;;;;;;;4.47;4.00;;;;;;;20.25;100.00;151127.09;5068931;28;20240;-60
2023/07/10 01:26:17;;;;;;;5.05;4.65;;;;;;;19.80;100.00;151015.09;5071008;28;20191;-61
2023/07/10 01:28:45;;;;;;;4.70;4.40;;;;;;;20.24;100.00;151125.81;5070696;28;20212;-61
2023/07/10 01:31:14;;;;;;;4.68;4.38;;;;;;;20.25;100.00;151128.38;5070787;28;20181;-60
2023/07/10 01:33:44;;;;;;;5.93;4.65;;;;;;;20.00;100.00;151066.00;5070800;28;20199;-60
2023/07/10 01:36:15;;;;;;;6.45;4.60;;;;;;;19.88;100.00;151035.47;5070901;28;20343;-61
2023/07/10 01:38:47;;;;;;;6.30;5.07;;;;;;;19.38;100.00;150908.16;5070751;28;20196;-61
2023/07/10 01:41:24;;;;;;;4.80;4.47;;;;;;;19.51;100.00;150942.56;5071212;28;20677;-59
2023/07/10 01:43:51;;;;;;;6.38;5.63;;;;;;;19.42;100.00;150919.59;5074505;28;20195;-60
2023/07/10 01:46:21;;;;;;;6.13;5.53;;;;;;;19.52;100.00;150945.06;5074475;28;20331;-61
2023/07/10 01:48:51;;;;;;;10.52;6.13;;;;;;;19.64;100.00;150973.09;5074389;28;20205;-60
2023/07/10 01:51:19;;;;;;;6.60;5.95;;;;;;;19.58;100.00;150959.09;5074805;28;20575;-60
2023/07/10 01:53:47;;;;;;;9.75;6.88;;;;;;;19.56;100.00;150955.25;5074625;28;20200;-61
2023/07/10 01:56:17;;;;;;;15.50;7.45;;;;;;;19.56;100.00;150954.03;5074279;28;20188;-60
2023/07/10 01:58:44;;;;;;;12.60;7.45;;;;;;;19.46;100.00;150929.81;5074550;28;20185;-61
2023/07/10 02:01:11;;;;;;;11.33;7.63;;;;;;;19.17;100.00;150857.25;5074442;28;20195;-60
2023/07/10 02:03:38;;;;;;;17.40;8.37;;;;;;;19.35;100.00;150901.75;5074487;28;20211;-62
2023/07/10 02:06:05;;;;;;;12.90;7.88;;;;;;;19.45;100.00;150927.28;5074787;28;20658;-60
2023/07/10 02:08:31;;;;;;;12.83;8.07;;;;;;;19.42;100.00;150919.59;5074240;28;20216;-60
2023/07/10 02:11:00;;;;;;;18.70;8.38;;;;;;;19.46;100.00;150929.81;5074442;28;20196;-60
2023/07/10 02:13:26;;;;;;;8.90;8.13;;;;;;;19.45;100.00;150927.28;5073881;28;20192;-60
2023/07/10 02:15:54;;;;;;;9.48;8.50;;;;;;;19.52;100.00;150943.78;5074259;28;20661;-60
2023/07/10 02:18:21;;;;;;;13.80;9.68;;;;;;;19.18;100.00;150858.50;5074046;28;20650;-59
2023/07/10 02:20:50;;;;;;;12.20;9.05;;;;;;;19.43;100.00;150922.22;5074093;28;20185;-61
2023/07/10 02:23:17;;;;;;;15.23;9.10;;;;;;;19.34;100.00;150899.25;5074066;28;20187;-60
2023/07/10 02:25:44;;;;;;;17.45;8.98;;;;;;;19.44;100.00;150924.72;5073663;28;20189;-61
2023/07/10 02:28:13;;;;;;;13.93;9.13;;;;;;;19.41;100.00;150915.75;5073815;28;20571;-60
2023/07/10 02:30:40;;;;;;;17.83;8.02;;;;;;;19.49;100.00;150937.44;5073512;28;20192;-60
2023/07/10 02:33:06;;;;;;;12.25;8.23;;;;;;;19.51;100.00;150942.56;5073670;28;20185;-60
2023/07/10 02:35:33;;;;;;;12.52;8.38;;;;;;;19.38;100.00;150909.44;5073769;28;20560;-61
2023/07/10 02:38:00;;;;;;;12.15;8.40;;;;;;;19.54;100.00;150950.19;5073785;28;20215;-60
2023/07/10 02:40:27;;;;;;;19.48;8.93;;;;;;;19.64;100.00;150974.38;5073306;28;20195;-60
2023/07/10 02:42:54;;;;;;;9.38;7.95;;;;;;;19.62;100.00;150969.25;5073475;28;20188;-60
2023/07/10 02:45:22;;;;;;;15.10;8.05;;;;;;;19.70;100.00;150989.63;5073341;28;20232;-60
2023/07/10 02:47:49;;;;;;;13.50;8.73;;;;;;;19.77;100.00;151007.47;5073779;28;20230;-60
2023/07/10 02:50:16;;;;;;;10.38;8.38;;;;;;;19.81;100.00;151017.66;5073851;28;20556;-60
2023/07/10 02:52:43;;;;;;;17.73;7.60;;;;;;;19.85;100.00;151026.56;5072978;28;20196;-60
2023/07/10 02:55:10;;;;;;;19.38;8.52;;;;;;;19.90;100.00;151040.53;5073286;28;20192;-60
2023/07/10 02:57:37;;;;;;;14.25;8.18;;;;;;;19.89;100.00;151036.75;5073308;28;20185;-61
2023/07/10 03:00:06;;;;;;;11.63;7.90;;;;;;;19.71;100.00;150992.19;5072958;28;20273;-60
2023/07/10 03:02:34;;;;;;;13.53;8.50;;;;;;;19.79;100.00;151011.28;5073360;28;20184;-61
2023/07/10 03:05:01;;;;;;;12.73;8.90;;;;;;;19.82;100.00;151018.88;5073251;28;20188;-60
2023/07/10 03:07:28;;;;;;;12.55;9.00;;;;;;;19.84;100.00;151024.00;5073112;28;20559;-60
2023/07/10 03:09:55;;;;;;;16.35;9.38;;;;;;;19.80;100.00;151013.81;5072818;28;20180;-60
2023/07/10 03:12:22;;;;;;;13.30;8.45;;;;;;;19.79;100.00;151012.53;5073227;28;20189;-60
2023/07/10 03:14:49;;;;;;;9.63;8.65;;;;;;;19.39;100.00;150911.94;5073121;28;20662;-60
2023/07/10 03:17:16;;;;;;;17.42;8.32;;;;;;;19.47;100.00;150932.38;5072987;28;20200;-60
2023/07/10 03:19:44;;;;;;;11.02;8.20;;;;;;;19.99;100.00;151062.19;5072805;28;20200;-60
2023/07/10 03:22:11;;;;;;;17.52;7.60;;;;;;;20.64;100.00;151226.50;5073097;28;20193;-60
2023/07/10 03:24:39;;;;;;;30.30;8.70;;;;;;;21.15;100.00;151355.22;5072512;28;20196;-60
2023/07/10 03:27:06;;;;;;;14.90;8.02;;;;;;;21.37;100.00;151411.28;5072718;28;20685;-60
2023/07/10 03:29:35;;;;;;;12.75;7.50;;;;;;;22.07;100.00;151587.22;5072283;28;20258;-60
2023/07/10 03:32:02;;;;;;;10.45;7.65;;;;;;;22.13;100.00;151602.53;5072639;28;20200;-60
2023/07/10 03:34:28;;;;;;;8.20;7.40;;;;;;;22.13;100.00;151602.53;5072598;28;20653;-59
2023/07/10 03:36:57;;;;;;;8.00;6.82;;;;;;;21.97;100.00;151561.75;5072291;28;20184;-60
2023/07/10 03:39:24;;;;;;;7.43;6.90;;;;;;;21.92;100.00;151547.66;5072208;28;20186;-59
2023/07/10 03:41:50;;;;;;;8.00;6.60;;;;;;;21.99;100.00;151566.81;5072413;28;20193;-59
2023/07/10 03:44:17;;;;;;;7.30;6.78;;;;;;;22.24;100.00;151630.56;5072178;28;20201;-60
2023/07/10 03:46:44;;;;;;;7.70;6.90;;;;;;;22.40;100.00;151668.84;5072373;28;20192;-60
2023/07/10 03:49:11;;;;;;;10.68;7.32;;;;;;;22.38;100.00;151665.00;5072380;28;20215;-60
2023/07/10 03:51:39;;;;;;;9.05;7.20;;;;;;;22.66;100.00;151735.16;5071996;28;20216;-60
2023/07/10 03:54:08;;;;;;;8.50;7.07;;;;;;;22.62;100.00;151724.94;5072405;28;20631;-60
2023/07/10 03:56:36;;;;;;;6.95;6.55;;;;;;;22.53;100.00;151703.25;5072046;28;20285;-60
2023/07/10 03:59:03;;;;;;;6.25;5.65;;;;;;;22.87;100.00;151788.78;5071777;28;20189;-60
2023/07/10 04:01:30;;;;;;;6.43;5.80;;;;;;;23.00;100.00;151821.91;5071802;28;20197;-60
2023/07/10 04:03:57;;;;;;;6.65;6.03;;;;;;;23.15;100.00;151860.22;5071919;28;20184;-59
2023/07/10 04:06:24;;;;;;;13.65;5.95;;;;;;;23.29;100.00;151894.69;5071791;28;20629;-60
2023/07/10 04:08:50;;;;;;;5.95;5.45;;;;;;;23.62;100.00;151978.94;5071743;28;20215;-61
2023/07/10 04:11:21;;;;;;;6.75;5.45;;;;;;;23.80;100.00;152022.34;5071911;28;20191;-62
2023/07/10 04:13:48;;;;;;;5.93;5.35;;;;;;;24.09;100.00;152096.38;5072249;28;20627;-60
2023/07/10 04:16:18;;;;;;;6.03;5.50;;;;;;;24.02;100.00;152079.75;5071765;28;20180;-60
2023/07/10 04:18:48;;;;;;;7.40;5.20;;;;;;;24.43;100.00;152181.97;5071569;28;20176;-60
2023/07/10 04:21:17;;;;;;;5.13;4.68;;;;;;;24.60;100.00;152225.38;5071924;28;20546;-61
2023/07/10 04:23:44;;;;;;;11.20;4.88;;;;;;;24.86;100.00;152290.59;5071463;28;20191;-60
2023/07/10 04:26:16;;;;;;;4.95;4.63;;;;;;;24.98;100.00;152322.50;5071392;28;20192;-60
2023/07/10 04:28:45;;;;;;;8.13;5.43;;;;;;;25.17;100.00;152369.75;5071723;28;20547;-60
2023/07/10 04:31:11;;;;;;;6.53;4.80;;;;;;;25.37;100.00;152419.63;5071677;28;20192;-60
2023/07/10 04:33:38;;;;;;;7.97;5.18;;;;;;;25.58;100.00;152473.34;5071698;28;20189;-61
2023/07/10 04:36:06;;;;;;;9.57;5.30;;;;;;;25.95;100.00;152565.31;5071304;28;20181;-61
2023/07/10 04:38:32;;;;;;;8.93;5.35;;;;;;;25.94;100.00;152564.03;5071497;28;20181;-62
2023/07/10 04:41:01;;;;;;;6.22;5.53;;;;;;;26.20;100.00;152629.28;5071135;28;20191;-61
2023/07/10 04:43:31;;;;;;;9.77;5.47;;;;;;;25.86;100.00;152544.88;5071102;28;20535;-60
2023/07/10 04:46:02;;;;;;;9.00;4.93;;;;;;;26.43;100.00;152686.84;5071117;28;20236;-61
2023/07/10 04:48:30;;;;;;;12.93;4.43;;;;;;;26.55;99.74;152718.81;5071476;28;20279;-60
2023/07/10 04:51:02;;;;;;;9.50;5.15;;;;;;;26.66;100.00;152745.63;5071109;28;20184;-61
2023/07/10 04:53:31;;;;;;;22.35;5.20;;;;;;;26.98;96.90;152826.28;5071180;28;20188;-61
2023/07/10 04:55:58;;;;;;;9.30;4.63;;;;;;;26.88;96.81;152801.97;5071437;28;20181;-61
2023/07/10 04:58:25;;;;;;;8.40;5.28;;;;;;;27.34;90.82;152918.38;5071637;28;20669;-61
2023/07/10 05:00:53;;;;;;;18.67;4.95;;;;;;;27.56;88.88;152973.44;5071393;28;20188;-61
2023/07/10 05:03:22;;;;;;;9.90;4.53;;;;;;;27.54;88.43;152969.56;5072580;28;20185;-62
2023/07/10 05:05:53;;;;;;;15.00;5.70;;;;;;;27.89;86.78;153056.59;5072473;28;20191;-62
2023/07/10 05:08:21;;;;;;;13.50;5.00;;;;;;;28.13;85.11;153118.13;5074391;28;20238;-64
2023/07/10 05:10:50;;;;;;;15.38;5.72;;;;;;;28.12;85.44;153115.56;5075171;28;20227;-63
2023/07/10 05:13:17;;;;;;;15.75;5.35;;;;;;;28.22;83.99;153141.13;5074404;28;20196;-61
2023/07/10 05:15:44;;;;;;;24.55;7.25;;;;;;;28.05;85.83;153098.84;5073953;28;20185;-62
2023/07/10 05:18:11;;;;;;;10.00;5.10;;;;;;;28.27;85.09;153152.63;5076016;28;20188;-58
2023/07/10 05:20:41;;;;;;;6.80;4.90;;;;;;;28.39;83.69;153183.41;5077448;28;20220;-62
2023/07/10 05:23:08;;;;;;;7.30;4.97;;;;;;;28.66;81.93;153252.50;5080689;28;20209;-61
2023/07/10 05:25:35;;;;;;;8.05;4.30;;;;;;;28.57;80.70;153230.75;5075438;28;20225;-60
2023/07/10 05:28:02;;;;;;;10.13;4.97;;;;;;;28.59;79.86;153235.91;5075827;28;20189;-60
2023/07/10 05:30:29;;;;;;;13.65;5.28;;;;;;;28.73;80.16;153269.25;5075294;28;20184;-58
2023/07/10 05:32:57;;;;;;;8.10;4.90;;;;;;;28.24;81.73;153146.25;5075334;28;20189;-60
2023/07/10 05:35:24;;;;;;;7.28;5.78;;;;;;;28.44;80.36;153197.47;5075250;28;20562;-60
2023/07/10 05:37:52;;;;;;;8.52;6.07;;;;;;;28.59;81.19;153235.91;5075438;28;20558;-59
2023/07/10 05:40:19;;;;;;;10.48;5.78;;;;;;;28.86;80.60;153302.50;5075666;28;20550;-60
2023/07/10 05:42:46;;;;;;;8.10;5.15;;;;;;;28.66;80.70;153251.22;5074807;28;20189;-59
2023/07/10 05:45:12;;;;;;;9.15;6.00;;;;;;;28.48;82.51;153207.69;5075334;28;20324;-59
2023/07/10 05:47:39;;;;;;;10.40;5.82;;;;;;;28.39;84.72;153184.66;5074749;28;20195;-59
2023/07/10 05:50:08;;;;;;;8.55;5.90;;;;;;;28.33;86.85;153168.03;5074659;28;20208;-60
2023/07/10 05:52:35;;;;;;;10.10;5.95;;;;;;;28.50;84.41;153212.84;5074261;28;20230;-59
2023/07/10 05:55:03;;;;;;;9.85;5.78;;;;;;;28.50;83.14;153212.84;5074720;28;20192;-60
2023/07/10 05:57:30;;;;;;;22.95;8.52;;;;;;;28.76;80.94;153278.19;5075002;28;20185;-58
2023/07/10 05:59:57;;;;;;;9.82;7.28;;;;;;;29.16;77.91;153378.03;5068195;28;20612;-59
2023/07/10 06:02:27;;;;;;;17.67;8.05;;;;;;;29.33;78.28;153422.94;5054472;28;20276;-59
2023/07/10 06:04:54;;;;;;;17.27;8.20;;;;;;;29.71;75.25;153519.00;5054343;28;20192;-60
2023/07/10 06:07:21;;;;;;;8.70;5.97;;;;;;;29.83;72.28;153549.75;5054243;28;20648;-60
2023/07/10 06:09:48;;;;;;;12.00;7.07;;;;;;;29.92;71.68;153571.59;5056355;28;20239;-60
2023/07/10 06:12:16;;;;;;;8.80;6.97;;;;;;;30.16;70.91;153631.84;5062605;28;20197;-59
2023/07/10 06:14:43;;;;;;;9.43;6.82;;;;;;;30.38;70.04;153689.50;5054147;28;20679;-59
2023/07/10 06:17:10;;;;;;;9.23;7.25;;;;;;;30.26;70.75;153658.72;5059982;28;20204;-60
2023/07/10 06:19:39;;;;;;;12.77;6.13;;;;;;;30.44;69.60;153702.31;5070838;28;20287;-60
2023/07/10 06:22:08;;;;;;;6.78;5.65;;;;;;;30.90;66.63;153820.31;5065318;28;20587;-59
2023/07/10 06:24:35;;;;;;;205.02;177.45;;;;;;;31.32;65.79;153926.78;5053724;28;20196;-59
2023/07/10 06:27:02;;;;;;;6.28;5.68;;;;;;;31.86;62.12;154062.81;5063576;28;20197;-60
2023/07/10 06:29:32;;;;;;;5.82;5.30;;;;;;;31.94;61.64;154084.63;5068031;28;20324;-57
2023/07/10 06:31:59;;;;;;;7.90;4.80;;;;;;;32.36;59.91;154189.88;5072828;28;20265;-58
2023/07/10 06:34:26;;;;;;;8.70;5.05;;;;;;;32.43;59.83;154207.81;5074022;28;20673;-61
2023/07/10 06:36:53;;;;;;;8.90;4.70;;;;;;;32.54;57.54;154236.09;5072736;28;20196;-60
2023/07/10 06:39:20;;;;;;;8.63;4.82;;;;;;;33.04;56.00;154364.50;5062656;28;20711;-60
2023/07/10 06:41:47;;;;;;;4.75;4.15;;;;;;;33.27;54.93;154421.03;5061745;28;20235;-59
2023/07/10 06:44:13;;;;;;;10.38;5.10;;;;;;;33.11;55.36;154379.88;5058846;28;20243;-59
2023/07/10 06:46:42;;;;;;;10.85;5.00;;;;;;;32.97;54.94;154346.47;5067210;28;20197;-59
2023/07/10 06:49:08;;;;;;;6.88;4.10;;;;;;;33.07;55.54;154372.19;5073665;28;20278;-60
2023/07/10 06:51:36;;;;;;;5.55;3.95;;;;;;;33.32;54.35;154435.13;5073421;28;20185;-60
2023/07/10 06:54:03;;;;;;;4.75;4.32;;;;;;;33.90;51.47;154582.88;5073134;28;20189;-59
2023/07/10 06:56:31;;;;;;;4.90;4.32;;;;;;;33.82;51.50;154562.28;5073829;28;20292;-59
2023/07/10 06:58:58;;;;;;;9.77;4.25;;;;;;;34.25;49.73;154671.53;5073113;28;20189;-60
2023/07/10 07:01:25;;;;;;;6.15;5.70;;;;;;;34.16;50.33;154648.41;5073046;28;20199;-59
2023/07/10 07:03:53;;;;;;;15.43;4.65;;;;;;;33.58;52.61;154500.63;5073919;28;20240;-66
2023/07/10 07:06:20;;;;;;;4.43;4.13;;;;;;;33.54;52.52;154490.34;5067598;28;20201;-65
2023/07/10 07:08:48;;;;;;;5.93;4.40;;;;;;;33.34;54.44;154439.00;5075310;28;20189;-68
2023/07/10 07:11:15;;;;;;;5.53;5.03;;;;;;;33.49;54.49;154477.50;5074959;28;20631;-66
2023/07/10 07:13:42;;;;;;;10.45;4.13;;;;;;;33.50;55.44;154480.06;5075068;28;20200;-66
2023/07/10 07:16:09;;;;;;;10.82;4.75;;;;;;;33.19;55.68;154400.44;5054163;28;20557;-62
2023/07/10 07:18:37;;;;;;;6.32;4.15;;;;;;;33.21;57.26;154406.91;5054084;28;20233;-65
2023/07/10 07:21:05;;;;;;;7.30;4.25;;;;;;;32.90;56.76;154328.53;5054605;28;20181;-66
2023/07/10 07:23:32;;;;;;;4.38;3.97;;;;;;;33.21;54.29;154406.91;5054382;28;20272;-66
2023/07/10 07:25:59;;;;;;;4.35;3.70;;;;;;;33.15;53.63;154391.47;5055432;28;20193;-66
2023/07/10 07:28:26;;;;;;;6.57;4.45;;;;;;;32.91;53.24;154331.09;5071797;28;20250;-66
2023/07/10 07:30:53;;;;;;;6.95;3.90;;;;;;;32.79;53.81;154300.31;5073965;28;20604;-66
2023/07/10 07:33:21;;;;;;;4.57;3.80;;;;;;;32.82;54.67;154308.00;5075075;28;20658;-67
2023/07/10 07:35:48;;;;;;;3.60;3.40;;;;;;;33.17;53.16;154395.34;5075379;28;20623;-66
2023/07/10 07:38:17;;;;;;;3.63;3.42;;;;;;;33.27;51.07;154421.03;5075092;28;20184;-68
2023/07/10 07:40:45;;;;;;;3.28;3.17;;;;;;;33.22;50.25;154409.47;5071069;28;20655;-65
2023/07/10 07:43:12;;;;;;;5.07;3.63;;;;;;;33.27;50.21;154421.03;5065172;28;20189;-67
2023/07/10 07:45:38;;;;;;;3.95;3.50;;;;;;;33.27;50.14;154422.28;5074810;28;20236;-66
2023/07/10 07:48:06;;;;;;;4.45;3.20;;;;;;;33.31;49.94;154431.31;5074367;28;20504;-66
2023/07/10 07:50:33;;;;;;;4.68;3.65;;;;;;;33.61;50.10;154508.31;5072825;28;20582;-65
2023/07/10 07:53:03;;;;;;;5.47;3.55;;;;;;;33.43;50.13;154462.13;5073213;28;20189;-70
2023/07/10 07:55:32;;;;;;;4.45;3.47;;;;;;;33.78;48.97;154550.78;5073126;28;20185;-67
2023/07/10 07:57:59;;;;;;;4.32;3.38;;;;;;;34.02;48.73;154611.13;5072498;28;20185;-64
2023/07/10 08:00:29;;;;;;;3.67;3.30;;;;;;;34.30;49.00;154683.09;5072844;28;20184;-67
2023/07/10 08:02:59;;;;;;;5.68;3.50;;;;;;;34.47;48.21;154726.78;5073571;28;20189;-70
2023/07/10 08:05:27;;;;;;;3.78;3.63;;;;;;;34.54;47.51;154744.78;5073689;28;20185;-66
2023/07/10 08:07:54;;;;;;;4.07;3.67;;;;;;;34.69;45.72;154782.06;5072946;28;20627;-65
2023/07/10 08:10:21;;;;;;;3.67;3.47;;;;;;;34.79;45.65;154809.09;5072400;28;20209;-66
2023/07/10 08:12:49;;;;;;;3.38;3.15;;;;;;;35.21;44.57;154914.50;5072495;28;20189;-65
2023/07/10 08:15:16;;;;;;;2.97;2.75;;;;;;;35.56;43.87;155004.44;5074264;28;20215;-65
2023/07/10 08:17:43;;;;;;;4.15;3.70;;;;;;;36.02;43.07;155120.25;5072433;28;20586;-65
2023/07/10 08:20:11;;;;;;;3.38;3.28;;;;;;;36.54;42.10;155254.00;5076367;28;20181;-67
2023/07/10 08:22:37;;;;;;;3.28;3.17;;;;;;;36.48;40.59;155237.31;5073725;28;20203;-66
2023/07/10 08:25:09;;;;;;;4.38;3.80;;;;;;;36.02;42.16;155121.53;5073827;28;20501;-65
2023/07/10 08:27:36;;;;;;;3.50;3.20;;;;;;;35.83;41.80;155071.34;5074054;28;20204;-64
2023/07/10 08:30:05;;;;;;;4.40;4.15;;;;;;;35.23;42.35;154919.63;5075276;28;20618;-67
2023/07/10 08:32:32;;;;;;;4.25;3.95;;;;;;;35.08;42.75;154881.03;5074001;28;20586;-67
2023/07/10 08:34:59;;;;;;;3.40;3.15;;;;;;;35.33;43.33;154945.34;5073066;28;20497;-66
2023/07/10 08:37:26;;;;;;;3.95;3.67;;;;;;;35.11;40.75;154888.72;5055226;28;20634;-66
2023/07/10 08:39:53;;;;;;;3.80;3.58;;;;;;;35.17;41.46;154904.22;5059769;28;20197;-67
2023/07/10 08:42:23;;;;;;;4.13;3.75;;;;;;;35.48;42.58;154983.88;5062783;28;20655;-67
2023/07/10 08:44:53;;;;;;;4.30;3.70;;;;;;;35.42;42.45;154967.19;5072028;28;20281;-62
2023/07/10 08:47:24;;;;;;;3.95;3.75;;;;;;;35.01;42.18;154863.06;5070257;28;20574;-59
2023/07/10 08:49:54;;;;;;;4.25;3.50;;;;;;;34.90;43.44;154836.03;5071098;28;20661;-61
2023/07/10 08:52:37;;;;;;;3.80;3.70;;;;;;;35.12;41.77;154891.31;5076648;28;20192;-64
2023/07/10 08:55:06;;;;;;;3.42;3.33;;;;;;;34.70;42.46;154785.94;5077664;28;20275;-61
2023/07/10 08:57:36;;;;;;;4.00;3.78;;;;;;;34.85;43.14;154824.47;5077337;28;20208;-62
2023/07/10 09:00:06;;;;;;;4.80;4.20;;;;;;;35.12;44.22;154891.31;5077950;28;20556;-64
2023/07/10 09:02:39;;;;;;;5.80;3.58;;;;;;;35.43;42.63;154971.06;5077808;28;20192;-61
2023/07/10 09:05:09;;;;;;;3.13;3.03;;;;;;;35.45;42.10;154976.19;5077659;28;20184;-61
2023/07/10 09:07:42;;;;;;;3.45;3.35;;;;;;;35.41;43.24;154965.91;5077336;28;20195;-62
2023/07/10 09:10:15;;;;;;;4.43;3.97;;;;;;;35.09;41.02;154883.63;5077084;28;20216;-61
2023/07/10 09:12:48;;;;;;;3.13;3.03;;;;;;;35.21;41.71;154914.50;5077116;28;20210;-63
2023/07/10 09:15:17;;;;;;;3.55;3.45;;;;;;;35.28;41.40;154932.47;5077094;28;20649;-61
2023/07/10 09:17:58;;;;;;;4.68;3.38;;;;;;;35.24;41.83;154922.19;5077692;28;20185;-60
2023/07/10 09:20:25;;;;;;;3.47;3.38;;;;;;;35.20;41.91;154911.91;5070882;28;20619;-61
2023/07/10 09:22:57;;;;;;;6.03;4.03;;;;;;;35.24;41.93;154922.19;5077374;28;20287;-62
2023/07/10 09:25:26;;;;;;;5.88;3.67;;;;;;;35.42;41.09;154967.19;5077144;28;20195;-61
2023/07/10 09:27:53;;;;;;;5.13;3.10;;;;;;;35.59;40.96;155010.91;5077641;28;20192;-61
2023/07/10 09:30:31;;;;;;;3.60;3.40;;;;;;;35.78;40.39;155058.50;5076583;28;20670;-59
2023/07/10 09:33:04;;;;;;;3.45;3.28;;;;;;;35.87;40.03;155081.63;5071192;28;20197;-60
2023/07/10 09:35:32;;;;;;;5.13;3.67;;;;;;;35.99;40.20;155112.50;5077720;28;20201;-62
2023/07/10 09:38:01;;;;;;;4.95;3.70;;;;;;;36.18;39.82;155161.44;5077046;28;20188;-66
2023/07/10 09:40:40;;;;;;;3.72;3.20;;;;;;;36.29;39.59;155189.69;5078077;28;20653;-61
2023/07/10 09:43:12;;;;;;;4.03;3.55;;;;;;;36.63;40.14;155277.22;5077820;28;20276;-63
2023/07/10 09:45:44;;;;;;;6.68;3.83;;;;;;;36.67;38.29;155286.22;5077285;28;20239;-63
2023/07/10 09:48:20;;;;;;;3.35;2.90;;;;;;;36.55;39.79;155256.59;5077251;28;20189;-62
2023/07/10 09:50:50;;;;;;;3.92;3.72;;;;;;;36.50;38.59;155243.72;5077095;28;20211;-63
2023/07/10 09:53:31;;;;;;;4.35;3.55;;;;;;;36.56;39.02;155257.88;5077492;28;20559;-63
2023/07/10 09:55:58;;;;;;;7.85;3.15;;;;;;;37.12;38.04;155400.78;5077440;28;20184;-62
2023/07/10 09:58:26;;;;;;;4.07;3.75;;;;;;;37.62;37.72;155526.91;5077349;28;20658;-62
2023/07/10 10:00:53;;;;;;;3.78;3.58;;;;;;;37.99;35.91;155622.19;5076923;28;20204;-61
2023/07/10 10:03:26;;;;;;;6.20;6.00;;;;;;;37.68;36.63;155542.38;5074131;28;20272;-62
2023/07/10 10:05:55;;;;;;;4.15;4.00;;;;;;;37.83;36.61;155582.25;5073815;28;20191;-63
2023/07/10 10:08:27;;;;;;;3.60;3.47;;;;;;;37.41;37.01;155475.41;5074389;28;20265;-63
2023/07/10 10:11:07;;;;;;;3.67;3.42;;;;;;;36.86;38.73;155335.13;5073864;28;20204;-62
2023/07/10 10:13:41;;;;;;;3.90;3.80;;;;;;;36.49;38.37;155241.19;5074159;28;20189;-64
2023/07/10 10:16:16;;;;;;;3.60;3.33;;;;;;;36.20;38.84;155166.56;5074332;28;20191;-64
2023/07/10 10:18:51;;;;;;;3.92;3.70;;;;;;;35.94;39.85;155099.69;5074886;28;20184;-64
2023/07/10 10:21:20;;;;;;;3.65;3.40;;;;;;;35.70;39.33;155039.22;5074349;28;20194;-61
2023/07/10 10:23:53;;;;;;;3.45;3.25;;;;;;;35.49;40.08;154985.19;5073843;28;20275;-64
2023/07/10 10:27:09;;;;;;;3.90;3.60;;;;;;;35.42;40.35;154967.19;5077170;28;20177;-62
2023/07/10 10:29:53;;;;;;;3.55;3.30;;;;;;;35.44;40.55;154972.31;5010533;28;20254;-60
2023/07/10 10:32:30;;;;;;;3.90;3.70;;;;;;;35.45;39.42;154974.91;5067957;28;20218;-64
2023/07/10 10:35:06;;;;;;;3.85;3.55;;;;;;;35.34;39.45;154947.94;5073591;28;20184;-60
2023/07/10 10:37:47;;;;;;;4.97;3.83;;;;;;;35.39;39.18;154960.78;5073057;28;20184;-60
2023/07/10 10:40:25;;;;;;;3.70;3.50;;;;;;;35.78;39.63;155058.50;5073570;28;20184;-61
2023/07/10 10:43:01;;;;;;;3.83;3.63;;;;;;;36.25;39.16;155179.41;5073266;28;20196;-60
2023/07/10 10:45:33;;;;;;;3.50;3.30;;;;;;;36.40;38.75;155216.75;5073097;28;20228;-61
2023/07/10 10:48:15;;;;;;;4.35;3.40;;;;;;;36.36;37.54;155206.44;5073377;28;20195;-60
2023/07/10 10:50:51;;;;;;;4.13;3.35;;;;;;;36.31;38.47;155194.88;5073126;28;20215;-60
2023/07/10 10:53:30;;;;;;;3.50;3.22;;;;;;;35.96;38.06;155106.09;5073175;28;20188;-60
2023/07/10 10:56:15;;;;;;;3.80;3.50;;;;;;;35.68;37.68;155035.38;5073244;28;20185;-60
2023/07/10 10:58:53;;;;;;;3.30;3.20;;;;;;;35.71;38.38;155043.09;5073468;28;20231;-59
2023/07/10 11:01:36;;;;;;;3.50;3.30;;;;;;;35.72;38.08;155044.38;5073328;28;20655;-60
2023/07/10 11:04:15;;;;;;;3.22;3.03;;;;;;;35.78;37.78;155058.50;5073202;28;20188;-61
2023/07/10 11:06:58;;;;;;;3.05;2.95;;;;;;;35.80;38.59;155063.66;5073550;28;20224;-60
2023/07/10 11:09:29;;;;;;;4.18;3.55;;;;;;;35.73;38.51;155048.22;5072995;28;20720;-60
2023/07/10 11:12:02;;;;;;;3.78;3.03;;;;;;;35.19;38.72;154910.63;5073104;28;20204;-59
2023/07/10 11:14:32;;;;;;;3.42;3.13;;;;;;;34.98;38.56;154855.31;5072239;28;20528;-59
2023/07/10 11:16:59;;;;;;;3.35;3.20;;;;;;;34.92;39.52;154839.91;5073278;28;20677;-62
2023/07/10 11:19:29;;;;;;;2.53;2.42;;;;;;;34.66;39.89;154775.66;5072591;28;20246;-59
2023/07/10 11:22:09;;;;;;;2.38;2.28;;;;;;;34.24;40.67;154667.69;5072675;28;20184;-64
2023/07/10 11:24:36;;;;;;;2.90;2.80;;;;;;;34.32;40.45;154688.25;5072865;28;20291;-59
2023/07/10 11:27:13;;;;;;;3.40;3.10;;;;;;;34.39;40.83;154706.22;5072562;28;20231;-58
2023/07/10 11:29:45;;;;;;;2.50;2.40;;;;;;;34.18;40.38;154653.56;5072147;28;20192;-59